Time;durP1;ratioP1;P1;durP2;ratioP2;P2;SDS_P1;SDS_P2;PMS_P1;PMS_P2;Temp;Humidity;BMP_temperature;BMP_pressure;BME280_temperature;BME280_humidity;BME280_pressure;Samples;Min_cycle;Max_cycle;Signal;HPM_P1;HPM_P2
2022/03/12 00:00:30;;;;;;;10.65;7.47;;;5.70;67.20;;;;;;5058095;28;20391;-52
2022/03/12 00:02:57;;;;;;;9.77;7.43;;;5.70;66.80;;;;;;5053688;28;20407;-52
2022/03/12 00:05:27;;;;;;;10.52;7.07;;;5.70;67.40;;;;;;5053522;28;20383;-52
2022/03/12 00:07:53;;;;;;;12.93;7.88;;;5.60;67.10;;;;;;5055328;28;20388;-54
2022/03/12 00:10:22;;;;;;;12.90;7.17;;;5.70;68.80;;;;;;5053790;28;20449;-52
2022/03/12 00:12:48;;;;;;;10.10;7.27;;;5.60;67.70;;;;;;5059239;28;20390;-52
2022/03/12 00:15:14;;;;;;;12.50;7.03;;;5.50;67.90;;;;;;5074672;28;20385;-53
2022/03/12 00:17:44;;;;;;;8.45;6.90;;;5.50;68.00;;;;;;5074623;28;20416;-50
2022/03/12 00:20:12;;;;;;;11.40;7.80;;;5.40;67.90;;;;;;5074970;28;20382;-49
2022/03/12 00:22:43;;;;;;;11.02;7.20;;;5.50;68.30;;;;;;5074734;28;20831;-48
2022/03/12 00:25:11;;;;;;;10.45;7.45;;;5.30;67.60;;;;;;5092581;28;20381;-49
2022/03/12 00:27:41;;;;;;;12.70;7.70;;;5.40;68.40;;;;;;5074228;28;20803;-49
2022/03/12 00:30:09;;;;;;;12.00;7.43;;;5.40;69.30;;;;;;5074260;28;20390;-48
2022/03/12 00:32:38;;;;;;;12.87;7.43;;;5.30;68.60;;;;;;5075748;28;20397;-54
2022/03/12 00:35:05;;;;;;;10.05;7.45;;;5.40;68.70;;;;;;5075457;28;20378;-53
2022/03/12 00:37:31;;;;;;;11.93;7.57;;;5.30;68.20;;;;;;5092286;28;20785;-49
2022/03/12 00:39:57;;;;;;;9.40;6.90;;;5.20;68.50;;;;;;5076253;28;20378;-52
2022/03/12 00:42:23;;;;;;;10.87;7.33;;;5.20;69.00;;;;;;5075234;28;20389;-50
2022/03/12 00:44:48;;;;;;;10.30;7.47;;;5.20;69.10;;;;;;5073973;28;20563;-51
2022/03/12 00:47:14;;;;;;;11.57;7.45;;;5.20;69.30;;;;;;5090871;28;20676;-51
2022/03/12 00:49:40;;;;;;;8.82;6.88;;;5.10;68.80;;;;;;5073508;28;20432;-49
2022/03/12 00:52:05;;;;;;;11.37;7.60;;;5.10;68.90;;;;;;5091721;28;20484;-49
2022/03/12 00:54:31;;;;;;;9.87;7.27;;;5.10;69.20;;;;;;5073867;28;20417;-51
2022/03/12 00:56:57;;;;;;;12.23;7.60;;;5.20;69.30;;;;;;5073472;28;20663;-54
2022/03/12 00:59:23;;;;;;;9.80;7.10;;;5.20;69.30;;;;;;5075162;28;20386;-53
2022/03/12 01:01:49;;;;;;;10.55;7.57;;;5.20;69.00;;;;;;5073571;28;20895;-54
2022/03/12 01:04:15;;;;;;;11.07;7.32;;;5.00;68.60;;;;;;5072627;28;20928;-54
2022/03/12 01:06:42;;;;;;;9.57;7.03;;;5.10;69.20;;;;;;5073638;28;20974;-49
2022/03/12 01:09:10;;;;;;;10.05;6.93;;;5.10;69.20;;;;;;5073612;28;20442;-50
2022/03/12 01:11:38;;;;;;;10.60;7.47;;;5.10;71.00;;;;;;5073485;28;20373;-53
2022/03/12 01:14:05;;;;;;;10.35;7.70;;;5.10;69.30;;;;;;5073434;28;20393;-50
2022/03/12 01:16:31;;;;;;;11.02;7.38;;;5.00;68.80;;;;;;5073436;28;20397;-51
2022/03/12 01:18:56;;;;;;;10.93;7.80;;;5.00;68.90;;;;;;5071994;28;20390;-53
2022/03/12 01:21:22;;;;;;;10.57;7.43;;;5.00;69.50;;;;;;5087548;28;20424;-52
2022/03/12 01:23:49;;;;;;;9.53;7.17;;;5.00;69.50;;;;;;5069832;28;20398;-50
2022/03/12 01:26:17;;;;;;;11.02;7.05;;;5.10;69.70;;;;;;5071892;28;20406;-50
2022/03/12 01:28:42;;;;;;;10.43;6.97;;;5.00;69.20;;;;;;5072912;28;20390;-51
2022/03/12 01:31:08;;;;;;;11.10;7.47;;;4.90;68.80;;;;;;5072060;28;20477;-48
2022/03/12 01:33:34;;;;;;;12.10;7.82;;;4.90;69.00;;;;;;5075128;28;20630;-49
2022/03/12 01:35:59;;;;;;;9.23;7.40;;;4.90;69.10;;;;;;5093058;28;20386;-48
2022/03/12 01:38:48;;;;;;;10.43;7.38;;;4.90;69.40;;;;;;5093242;28;20924;-52
2022/03/12 01:41:19;;;;;;;11.02;6.82;;;4.90;69.00;;;;;;5076223;28;20482;-52
2022/03/12 01:43:45;;;;;;;13.30;7.22;;;4.90;68.80;;;;;;5092868;28;20650;-50
2022/03/12 01:46:11;;;;;;;9.77;7.20;;;4.90;69.00;;;;;;5074611;28;20627;-53
2022/03/12 01:48:44;;;;;;;10.50;7.53;;;4.90;68.80;;;;;;5073672;28;20573;-48
2022/03/12 01:51:09;;;;;;;11.85;7.35;;;4.80;68.80;;;;;;5091827;28;20457;-52
2022/03/12 01:53:35;;;;;;;8.43;6.83;;;4.80;69.00;;;;;;5093089;28;20582;-51
2022/03/12 01:56:01;;;;;;;10.80;7.07;;;4.80;68.80;;;;;;5072172;28;20469;-52
2022/03/12 01:58:26;;;;;;;8.93;7.07;;;4.70;69.20;;;;;;5090319;28;20661;-52
2022/03/12 02:00:54;;;;;;;10.40;6.70;;;4.70;68.30;;;;;;5070478;28;20482;-54
2022/03/12 02:03:23;;;;;;;10.48;7.07;;;4.70;68.10;;;;;;5072281;28;20429;-52
2022/03/12 02:05:50;;;;;;;9.00;6.83;;;4.70;68.30;;;;;;5073164;28;20374;-51
2022/03/12 02:08:16;;;;;;;10.00;7.03;;;4.60;68.20;;;;;;5072295;28;20476;-49
2022/03/12 02:10:43;;;;;;;10.13;7.32;;;4.70;68.30;;;;;;5071685;28;20378;-50
2022/03/12 02:13:10;;;;;;;8.70;6.60;;;4.70;67.90;;;;;;5072227;28;20424;-52
2022/03/12 02:15:36;;;;;;;9.00;6.95;;;4.60;68.00;;;;;;5090657;28;20389;-51
2022/03/12 02:18:02;;;;;;;8.65;6.60;;;4.50;67.80;;;;;;5090439;28;20484;-52
2022/03/12 02:20:27;;;;;;;12.20;6.90;;;4.50;68.30;;;;;;5073604;28;20473;-51
2022/03/12 02:22:53;;;;;;;8.57;7.00;;;4.60;68.70;;;;;;5073651;28;20394;-53
2022/03/12 02:25:33;;;;;;;9.93;7.05;;;4.50;67.80;;;;;;5074363;28;20381;-55
2022/03/12 02:28:00;;;;;;;9.13;6.80;;;4.40;68.30;;;;;;5073041;28;20381;-51
2022/03/12 02:30:34;;;;;;;10.30;6.80;;;4.40;68.30;;;;;;5092015;28;20662;-54
2022/03/12 02:33:04;;;;;;;10.55;6.97;;;4.30;68.30;;;;;;5091162;28;20473;-51
2022/03/12 02:35:35;;;;;;;10.88;6.55;;;4.40;68.40;;;;;;5074646;28;20477;-51
2022/03/12 02:38:03;;;;;;;9.52;6.95;;;4.40;68.30;;;;;;5074035;28;20418;-51
2022/03/12 02:40:28;;;;;;;10.95;6.80;;;4.40;68.50;;;;;;5073860;28;20514;-52
2022/03/12 02:42:56;;;;;;;10.07;7.10;;;4.30;68.00;;;;;;5092214;28;20420;-51
2022/03/12 02:45:23;;;;;;;9.05;6.78;;;4.30;68.30;;;;;;5095308;28;20425;-50
2022/03/12 02:47:50;;;;;;;12.30;7.18;;;4.30;68.50;;;;;;5094064;28;20382;-54
2022/03/12 02:50:16;;;;;;;9.68;6.50;;;4.20;68.60;;;;;;5077457;28;20386;-52
2022/03/12 02:52:44;;;;;;;8.82;6.60;;;4.30;68.30;;;;;;5076910;28;20398;-53
2022/03/12 02:55:18;;;;;;;8.52;6.38;;;4.20;68.30;;;;;;5077007;28;21233;-51
2022/03/12 02:57:47;;;;;;;8.68;6.60;;;4.20;68.30;;;;;;5075932;28;20651;-55
2022/03/12 03:00:16;;;;;;;11.18;6.88;;;4.20;68.40;;;;;;5073678;28;20394;-54
2022/03/12 03:02:42;;;;;;;9.77;6.90;;;4.20;68.60;;;;;;5072283;28;20508;-51
2022/03/12 03:05:26;;;;;;;9.38;6.45;;;4.10;68.70;;;;;;5090103;28;20388;-53
2022/03/12 03:07:56;;;;;;;8.25;6.60;;;4.10;68.80;;;;;;5076227;28;20390;-52
2022/03/12 03:10:39;;;;;;;10.85;7.07;;;4.10;68.60;;;;;;5092038;28;20619;-50
2022/03/12 03:13:16;;;;;;;9.17;6.30;;;4.20;68.60;;;;;;5075330;28;20646;-51
2022/03/12 03:15:54;;;;;;;9.63;6.70;;;4.10;68.90;;;;;;5074393;28;20397;-52
2022/03/12 03:18:23;;;;;;;10.45;7.00;;;4.20;68.40;;;;;;5073899;28;20394;-52
2022/03/12 03:20:50;;;;;;;9.55;6.30;;;4.10;68.70;;;;;;5070980;28;20568;-52
2022/03/12 03:23:16;;;;;;;8.52;6.65;;;4.10;68.50;;;;;;5074294;28;20823;-56
2022/03/12 03:25:41;;;;;;;8.50;6.40;;;4.10;68.30;;;;;;5073358;28;20442;-53
2022/03/12 03:28:08;;;;;;;8.80;6.47;;;4.10;68.30;;;;;;5072750;28;20397;-53
2022/03/12 03:30:36;;;;;;;8.25;6.28;;;4.10;68.60;;;;;;5090550;28;20386;-52
2022/03/12 03:33:02;;;;;;;10.77;6.45;;;4.10;68.80;;;;;;5072805;28;20397;-50
2022/03/12 03:35:28;;;;;;;10.23;7.03;;;4.00;68.30;;;;;;5072159;28;20394;-53
2022/03/12 03:37:54;;;;;;;11.02;6.25;;;3.90;68.40;;;;;;5090225;28;20673;-52
2022/03/12 03:40:19;;;;;;;9.63;6.72;;;4.00;68.70;;;;;;5073125;28;20427;-53
2022/03/12 03:42:45;;;;;;;8.40;6.30;;;4.00;68.80;;;;;;5072966;28;20492;-54
2022/03/12 03:45:16;;;;;;;7.93;5.87;;;3.90;68.40;;;;;;5073258;28;20409;-56
2022/03/12 03:47:42;;;;;;;9.98;6.10;;;4.00;69.00;;;;;;5073944;28;20382;-53
2022/03/12 03:50:08;;;;;;;9.30;6.83;;;4.00;69.40;;;;;;5074495;28;20823;-50
2022/03/12 03:52:33;;;;;;;9.40;6.55;;;3.90;69.00;;;;;;5071231;28;20440;-52
2022/03/12 03:55:00;;;;;;;9.10;6.40;;;3.90;68.70;;;;;;5053710;28;20403;-53
2022/03/12 03:57:25;;;;;;;8.90;6.57;;;3.80;68.60;;;;;;5071202;28;20783;-53
2022/03/12 03:59:51;;;;;;;9.95;6.55;;;3.90;68.70;;;;;;5055512;28;20386;-55
2022/03/12 04:02:17;;;;;;;8.57;6.00;;;3.80;68.80;;;;;;5055683;28;20414;-52
2022/03/12 04:04:42;;;;;;;9.53;6.40;;;3.80;68.60;;;;;;5073953;28;20419;-53
2022/03/12 04:07:10;;;;;;;10.20;6.77;;;3.80;68.50;;;;;;5055618;28;20455;-55
2022/03/12 04:09:36;;;;;;;10.30;6.70;;;3.80;68.60;;;;;;5055296;28;20476;-52
2022/03/12 04:12:01;;;;;;;10.43;6.57;;;3.70;68.50;;;;;;5055814;28;20610;-50
2022/03/12 04:14:26;;;;;;;9.23;6.45;;;3.70;68.30;;;;;;5055486;28;20813;-52
2022/03/12 04:16:52;;;;;;;8.07;6.13;;;3.70;68.50;;;;;;5072026;28;20399;-52
2022/03/12 04:19:18;;;;;;;8.83;6.43;;;3.70;68.30;;;;;;5054409;28;20398;-54
2022/03/12 04:21:45;;;;;;;7.70;5.90;;;3.70;68.50;;;;;;5054024;28;20386;-52
2022/03/12 04:24:10;;;;;;;9.27;6.18;;;3.70;68.50;;;;;;5052653;28;20506;-52
2022/03/12 04:26:37;;;;;;;8.73;6.47;;;3.70;68.60;;;;;;5051735;28;20482;-57
2022/03/12 04:29:04;;;;;;;9.38;6.65;;;3.70;69.30;;;;;;5051836;28;20407;-54
2022/03/12 04:31:31;;;;;;;9.13;5.95;;;3.70;68.50;;;;;;5052294;28;20814;-51
2022/03/12 04:33:56;;;;;;;7.35;6.07;;;3.70;68.70;;;;;;5067495;28;20391;-53
2022/03/12 04:36:22;;;;;;;9.95;6.40;;;3.60;68.20;;;;;;5050997;28;20384;-54
2022/03/12 04:38:49;;;;;;;8.77;6.70;;;3.70;68.90;;;;;;5054231;28;20621;-56
2022/03/12 04:41:16;;;;;;;8.15;6.45;;;3.70;69.90;;;;;;5053759;28;20419;-49
2022/03/12 04:43:42;;;;;;;11.10;6.38;;;3.70;70.80;;;;;;5054483;28;20400;-52
2022/03/12 04:46:08;;;;;;;8.68;6.72;;;3.60;70.70;;;;;;5053988;28;20398;-52
2022/03/12 04:48:33;;;;;;;9.60;6.65;;;3.60;70.60;;;;;;5053359;28;20396;-55
2022/03/12 04:50:59;;;;;;;10.20;7.13;;;3.50;70.60;;;;;;5055125;28;20771;-51
2022/03/12 04:53:26;;;;;;;11.68;6.60;;;3.50;70.40;;;;;;5069009;28;20424;-54
2022/03/12 04:55:52;;;;;;;8.15;6.47;;;3.50;70.40;;;;;;5089705;28;20681;-53
2022/03/12 04:58:18;;;;;;;7.75;6.45;;;3.50;70.90;;;;;;5089210;28;20390;-51
2022/03/12 05:00:46;;;;;;;8.73;6.67;;;3.50;70.80;;;;;;5087012;28;20397;-54
2022/03/12 05:03:14;;;;;;;11.80;6.45;;;3.40;70.10;;;;;;5088780;28;20405;-54
2022/03/12 05:05:45;;;;;;;9.02;7.00;;;3.30;70.50;;;;;;5089269;28;20381;-55
2022/03/12 05:08:14;;;;;;;9.98;6.50;;;3.30;70.20;;;;;;5090289;28;20394;-53
2022/03/12 05:10:40;;;;;;;11.27;6.75;;;3.30;70.80;;;;;;5091177;28;20479;-54
2022/03/12 05:13:06;;;;;;;10.48;6.53;;;3.20;70.60;;;;;;5092810;28;20685;-55
2022/03/12 05:15:37;;;;;;;8.27;6.22;;;3.20;70.90;;;;;;5087955;28;20477;-54
2022/03/12 05:18:06;;;;;;;7.95;6.30;;;3.20;70.80;;;;;;5085959;28;20382;-51
2022/03/12 05:20:31;;;;;;;7.73;6.13;;;3.20;71.00;;;;;;5084904;28;20382;-53
2022/03/12 05:22:57;;;;;;;10.43;6.43;;;3.20;71.30;;;;;;5087777;28;20409;-52
2022/03/12 05:25:25;;;;;;;8.17;6.47;;;3.20;71.30;;;;;;5088253;28;20392;-55
2022/03/12 05:27:52;;;;;;;8.50;6.43;;;3.20;71.10;;;;;;5087318;28;20473;-55
2022/03/12 05:30:19;;;;;;;9.52;6.75;;;3.20;70.80;;;;;;5088009;28;20456;-54
2022/03/12 05:32:46;;;;;;;10.05;7.20;;;3.10;70.70;;;;;;5089861;28;20781;-50
2022/03/12 05:35:12;;;;;;;9.88;6.47;;;3.10;70.70;;;;;;5091449;28;20478;-49
2022/03/12 05:37:38;;;;;;;7.97;6.30;;;3.10;70.90;;;;;;5080729;28;20462;-52
2022/03/12 05:40:07;;;;;;;9.20;6.70;;;3.10;71.30;;;;;;5088976;28;20382;-54
2022/03/12 05:42:34;;;;;;;9.02;6.05;;;3.10;71.10;;;;;;5094340;28;20778;-51
2022/03/12 05:45:01;;;;;;;9.13;6.20;;;3.00;71.00;;;;;;5093961;28;20396;-54
2022/03/12 05:47:27;;;;;;;10.20;6.72;;;3.00;71.40;;;;;;5093302;28;20586;-51
2022/03/12 05:49:53;;;;;;;8.55;6.57;;;3.00;71.30;;;;;;5108753;28;20372;-56
2022/03/12 05:52:19;;;;;;;8.70;5.97;;;3.00;71.30;;;;;;5108865;28;20520;-51
2022/03/12 05:54:46;;;;;;;9.23;6.50;;;3.00;71.40;;;;;;5068254;28;20411;-51
2022/03/12 05:57:12;;;;;;;8.50;6.20;;;3.00;71.70;;;;;;5049532;28;20826;-53
2022/03/12 05:59:37;;;;;;;9.17;6.40;;;3.00;71.30;;;;;;5068180;28;20566;-50
2022/03/12 06:02:03;;;;;;;9.50;6.67;;;3.00;71.60;;;;;;5066614;28;20415;-57
2022/03/12 06:04:29;;;;;;;9.30;6.10;;;3.10;71.70;;;;;;5066571;28;20603;-50
2022/03/12 06:06:55;;;;;;;10.00;6.60;;;3.10;71.60;;;;;;5048841;28;20383;-55
2022/03/12 06:09:21;;;;;;;10.23;6.80;;;3.10;71.40;;;;;;5067136;28;20376;-56
2022/03/12 06:11:52;;;;;;;8.48;6.20;;;3.10;71.30;;;;;;5067544;28;20384;-50
2022/03/12 06:14:18;;;;;;;8.18;5.85;;;3.10;71.60;;;;;;5048654;28;20478;-54
2022/03/12 06:16:47;;;;;;;8.47;5.87;;;3.00;71.10;;;;;;5050581;28;20556;-51
2022/03/12 06:19:15;;;;;;;9.35;5.95;;;3.00;71.10;;;;;;5070829;28;20382;-51
2022/03/12 06:21:41;;;;;;;9.23;6.05;;;3.10;71.20;;;;;;5054233;28;20391;-56
2022/03/12 06:24:07;;;;;;;9.40;5.80;;;3.10;71.20;;;;;;5053677;28;20412;-53
2022/03/12 06:26:35;;;;;;;8.35;5.93;;;3.10;70.80;;;;;;5052884;28;20395;-52
2022/03/12 06:29:03;;;;;;;9.30;5.80;;;3.10;70.60;;;;;;5071443;28;20457;-54
2022/03/12 06:31:29;;;;;;;7.60;5.88;;;3.10;71.00;;;;;;5053566;28;20818;-52
2022/03/12 06:33:54;;;;;;;8.37;6.30;;;3.10;70.80;;;;;;5051223;28;20865;-50
2022/03/12 06:36:22;;;;;;;8.33;6.07;;;3.10;70.70;;;;;;5050731;28;20394;-52
2022/03/12 06:38:49;;;;;;;7.60;6.00;;;3.00;70.40;;;;;;5052050;28;20390;-50
2022/03/12 06:41:14;;;;;;;8.15;5.90;;;3.00;69.60;;;;;;5052434;28;20423;-50
2022/03/12 06:43:42;;;;;;;7.72;5.63;;;3.00;69.90;;;;;;5051371;28;20450;-52
2022/03/12 06:46:13;;;;;;;8.82;6.20;;;3.00;69.70;;;;;;5050441;28;20395;-55
2022/03/12 06:48:39;;;;;;;7.63;5.80;;;3.00;69.50;;;;;;5051809;28;20398;-53
2022/03/12 06:51:05;;;;;;;9.80;5.70;;;3.00;69.70;;;;;;5052651;28;20467;-54
2022/03/12 06:53:31;;;;;;;8.63;5.97;;;3.00;69.60;;;;;;5063280;28;20540;-55
2022/03/12 06:55:57;;;;;;;8.33;5.60;;;3.10;70.00;;;;;;5073754;28;20759;-51
2022/03/12 06:58:24;;;;;;;9.68;5.70;;;3.10;69.90;;;;;;5070724;28;20385;-53
2022/03/12 07:00:49;;;;;;;7.65;5.60;;;3.20;69.70;;;;;;5070252;28;20756;-53
2022/03/12 07:03:15;;;;;;;7.87;5.90;;;3.20;70.10;;;;;;5071206;28;20501;-52
2022/03/12 07:05:40;;;;;;;8.50;6.00;;;3.20;70.00;;;;;;5071481;28;20392;-52
2022/03/12 07:08:06;;;;;;;7.40;5.80;;;3.20;69.20;;;;;;5072085;28;20487;-52
2022/03/12 07:10:32;;;;;;;8.20;5.85;;;3.20;69.50;;;;;;5069644;28;20824;-54
2022/03/12 07:12:57;;;;;;;7.83;5.87;;;3.20;69.30;;;;;;5070606;28;20383;-51
2022/03/12 07:15:23;;;;;;;8.23;5.70;;;3.20;70.00;;;;;;5071838;28;20398;-53
2022/03/12 07:17:49;;;;;;;9.65;6.07;;;3.30;69.80;;;;;;5089987;28;20602;-54
2022/03/12 07:20:16;;;;;;;8.13;6.00;;;3.30;70.00;;;;;;5072501;28;20546;-50
2022/03/12 07:22:42;;;;;;;8.48;5.70;;;3.40;69.90;;;;;;5073077;28;20398;-51
2022/03/12 07:25:08;;;;;;;8.82;5.97;;;3.40;69.70;;;;;;5088644;28;20507;-51
2022/03/12 07:27:33;;;;;;;8.90;5.88;;;3.30;69.10;;;;;;5088544;28;20382;-53
2022/03/12 07:30:00;;;;;;;8.60;6.15;;;3.30;69.70;;;;;;5090079;28;20382;-56
2022/03/12 07:32:27;;;;;;;11.73;5.77;;;3.30;69.50;;;;;;5070417;28;20394;-54
2022/03/12 07:34:53;;;;;;;8.13;5.30;;;3.30;69.10;;;;;;5088241;28;20378;-56
2022/03/12 07:37:20;;;;;;;9.23;6.10;;;3.50;70.00;;;;;;5069397;28;20378;-55
2022/03/12 07:39:47;;;;;;;7.78;5.32;;;3.50;69.50;;;;;;5068924;28;20410;-54
2022/03/12 07:42:12;;;;;;;7.32;5.65;;;3.60;69.70;;;;;;5068483;28;20383;-53
2022/03/12 07:44:39;;;;;;;7.38;5.88;;;3.60;69.00;;;;;;5065612;28;20887;-50
2022/03/12 07:47:05;;;;;;;7.82;5.90;;;3.60;69.20;;;;;;5067114;28;20390;-54
2022/03/12 07:49:31;;;;;;;7.40;5.40;;;3.70;69.10;;;;;;5066737;28;20412;-51
2022/03/12 07:51:56;;;;;;;8.25;5.40;;;3.70;69.10;;;;;;5086773;28;20378;-53
2022/03/12 07:54:23;;;;;;;8.10;5.65;;;3.80;68.90;;;;;;5086114;28;20402;-50
2022/03/12 07:56:48;;;;;;;8.25;6.05;;;3.80;68.70;;;;;;5068621;28;20777;-50
2022/03/12 07:59:14;;;;;;;8.50;5.53;;;3.80;69.30;;;;;;5069060;28;20386;-52
2022/03/12 08:01:40;;;;;;;7.80;5.60;;;3.90;68.70;;;;;;5067400;28;20456;-50
2022/03/12 08:04:06;;;;;;;6.85;5.15;;;4.00;69.00;;;;;;5068269;28;20454;-54
2022/03/12 08:06:33;;;;;;;7.97;5.90;;;4.10;68.30;;;;;;5066540;28;20382;-52
2022/03/12 08:08:59;;;;;;;7.25;5.40;;;4.10;67.90;;;;;;5068501;28;20382;-50
2022/03/12 08:11:25;;;;;;;6.00;5.32;;;4.20;68.80;;;;;;5067790;28;20471;-51
2022/03/12 08:14:15;;;;;;;7.70;5.70;;;4.30;68.40;;;;;;5066173;28;20409;-53
2022/03/12 08:16:41;;;;;;;8.60;5.80;;;4.40;67.80;;;;;;5082752;28;20628;-52
2022/03/12 08:19:08;;;;;;;8.15;5.85;;;4.50;68.10;;;;;;5065704;28;20394;-54
2022/03/12 08:21:35;;;;;;;7.93;5.38;;;4.40;66.90;;;;;;5068840;28;20400;-52
2022/03/12 08:24:02;;;;;;;6.72;5.00;;;4.50;66.90;;;;;;5066619;28;20402;-50
2022/03/12 08:26:29;;;;;;;8.63;5.30;;;4.60;67.10;;;;;;5064642;28;20530;-53
2022/03/12 08:28:55;;;;;;;11.30;5.45;;;4.60;66.60;;;;;;5063743;28;20386;-52
2022/03/12 08:31:21;;;;;;;7.53;5.10;;;4.70;66.20;;;;;;5063664;28;20386;-53
2022/03/12 08:33:47;;;;;;;6.68;4.85;;;4.70;65.60;;;;;;5062060;28;20402;-57
2022/03/12 08:36:14;;;;;;;6.88;5.22;;;4.80;65.50;;;;;;5067069;28;20386;-51
2022/03/12 08:38:40;;;;;;;8.25;5.13;;;5.00;65.70;;;;;;5087389;28;20993;-55
2022/03/12 08:41:08;;;;;;;5.90;5.00;;;5.00;64.90;;;;;;5092099;28;20442;-54
2022/03/12 08:43:35;;;;;;;7.70;5.30;;;5.00;64.50;;;;;;5074494;28;20405;-51
2022/03/12 08:46:02;;;;;;;6.88;5.40;;;5.10;64.90;;;;;;5091884;28;20485;-54
2022/03/12 08:48:28;;;;;;;7.53;5.15;;;5.10;64.90;;;;;;5091675;28;20414;-54
2022/03/12 08:50:53;;;;;;;6.57;4.95;;;5.20;64.90;;;;;;5075481;28;20409;-54
2022/03/12 08:53:21;;;;;;;6.35;4.90;;;5.20;64.50;;;;;;5074813;28;20416;-55
2022/03/12 08:55:47;;;;;;;7.50;5.05;;;5.20;64.70;;;;;;5074845;28;20374;-57
2022/03/12 08:58:13;;;;;;;7.20;4.80;;;5.30;64.00;;;;;;5075009;28;20378;-51
2022/03/12 09:00:39;;;;;;;6.20;4.90;;;5.30;64.10;;;;;;5073891;28;20428;-54
2022/03/12 09:03:05;;;;;;;6.82;4.72;;;5.30;64.10;;;;;;5056686;28;20410;-55
2022/03/12 09:05:31;;;;;;;6.72;4.72;;;5.20;63.50;;;;;;5053959;28;20791;-55
2022/03/12 09:07:57;;;;;;;6.00;5.20;;;5.30;65.20;;;;;;5052730;28;20376;-56
2022/03/12 09:10:24;;;;;;;6.38;4.80;;;5.30;63.90;;;;;;5052314;28;20388;-54
2022/03/12 09:12:50;;;;;;;7.20;4.82;;;5.30;64.50;;;;;;5048381;28;20380;-53
2022/03/12 09:15:20;;;;;;;6.03;5.13;;;5.40;65.00;;;;;;5050474;28;20387;-55
2022/03/12 09:17:45;;;;;;;7.90;5.13;;;5.40;64.40;;;;;;5045889;28;20380;-51
2022/03/12 09:20:11;;;;;;;6.93;5.18;;;5.50;65.00;;;;;;5048077;28;20625;-53
2022/03/12 09:22:38;;;;;;;6.63;5.13;;;5.60;65.50;;;;;;5065803;28;20390;-55
2022/03/12 09:25:08;;;;;;;7.15;5.20;;;5.60;65.50;;;;;;5066897;28;20400;-52
2022/03/12 09:27:33;;;;;;;6.00;4.80;;;5.60;64.50;;;;;;5048631;28;20475;-55
2022/03/12 09:29:59;;;;;;;7.10;5.00;;;5.60;64.10;;;;;;5046513;28;20525;-53
2022/03/12 09:32:25;;;;;;;7.13;5.10;;;5.60;64.30;;;;;;5045905;28;20403;-53
2022/03/12 09:34:51;;;;;;;7.25;5.05;;;5.60;65.10;;;;;;5046847;28;20679;-53
2022/03/12 09:37:17;;;;;;;7.30;5.20;;;5.70;65.70;;;;;;5046504;28;20399;-53
2022/03/12 09:39:42;;;;;;;7.53;5.30;;;5.60;65.60;;;;;;5045475;28;20454;-51
2022/03/12 09:42:08;;;;;;;7.10;4.88;;;5.70;66.10;;;;;;5045553;28;20383;-49
2022/03/12 09:44:34;;;;;;;5.70;4.60;;;5.80;65.90;;;;;;5045753;28;20493;-56
2022/03/12 09:46:59;;;;;;;5.82;4.97;;;5.80;65.00;;;;;;5064256;28;20699;-51
2022/03/12 09:49:25;;;;;;;8.57;5.45;;;5.90;65.30;;;;;;5046258;28;20671;-55
2022/03/12 09:51:51;;;;;;;6.37;5.10;;;6.00;66.10;;;;;;5045367;28;20383;-56
2022/03/12 09:54:18;;;;;;;6.47;4.77;;;6.10;67.20;;;;;;5046430;28;21013;-55
2022/03/12 09:56:44;;;;;;;7.65;5.00;;;6.20;67.20;;;;;;5043995;28;20388;-53
2022/03/12 09:59:10;;;;;;;6.43;5.15;;;6.30;66.70;;;;;;5062151;28;20508;-54
2022/03/12 10:01:35;;;;;;;6.88;5.38;;;6.40;68.00;;;;;;5064477;28;20472;-51
2022/03/12 10:04:01;;;;;;;7.30;5.57;;;6.40;67.80;;;;;;5048241;28;20692;-51
2022/03/12 10:06:29;;;;;;;6.47;5.13;;;6.50;65.70;;;;;;5067577;28;20383;-56
2022/03/12 10:08:55;;;;;;;6.05;4.78;;;6.50;65.00;;;;;;5050457;28;20743;-56
2022/03/12 10:11:20;;;;;;;8.30;4.70;;;6.50;65.50;;;;;;5048919;28;20473;-56
2022/03/12 10:13:46;;;;;;;7.70;4.53;;;6.60;65.10;;;;;;5044581;28;20395;-57
2022/03/12 10:16:11;;;;;;;6.47;4.75;;;6.60;64.40;;;;;;5067772;28;20776;-54
2022/03/12 10:18:37;;;;;;;5.70;4.97;;;6.70;65.40;;;;;;5050291;28;20423;-53
2022/03/12 10:21:03;;;;;;;6.40;5.13;;;6.70;64.90;;;;;;5048177;28;20392;-54
2022/03/12 10:23:29;;;;;;;7.53;5.20;;;6.80;64.70;;;;;;5050747;28;20791;-55
2022/03/12 10:25:55;;;;;;;6.40;5.13;;;6.80;64.20;;;;;;5049598;28;20866;-52
2022/03/12 10:28:20;;;;;;;6.43;5.10;;;6.80;64.50;;;;;;5050603;28;20384;-54
2022/03/12 10:30:46;;;;;;;5.60;4.70;;;6.90;63.40;;;;;;5054540;28;20391;-55
2022/03/12 10:33:25;;;;;;;6.13;4.50;;;6.90;63.30;;;;;;5054081;28;20391;-55
2022/03/12 10:35:51;;;;;;;5.93;4.93;;;7.00;64.40;;;;;;5051256;28;20391;-54
2022/03/12 10:38:19;;;;;;;7.20;5.03;;;7.10;63.10;;;;;;5051689;28;20802;-54
2022/03/12 10:40:45;;;;;;;6.30;4.75;;;7.30;63.50;;;;;;5049431;28;20608;-55
2022/03/12 10:43:15;;;;;;;7.88;5.30;;;7.60;63.70;;;;;;5063053;28;20489;-51
2022/03/12 10:45:43;;;;;;;5.73;4.80;;;8.00;63.40;;;;;;5065733;28;20387;-57
2022/03/12 10:48:09;;;;;;;6.80;4.88;;;8.30;62.10;;;;;;5047346;28;20384;-55
2022/03/12 10:50:43;;;;;;;7.03;4.90;;;8.60;62.90;;;;;;5069088;28;20467;-54
2022/03/12 10:53:10;;;;;;;6.55;4.70;;;8.90;61.20;;;;;;5049785;28;20435;-55
2022/03/12 10:55:40;;;;;;;7.53;5.10;;;9.20;61.20;;;;;;5048209;28;20601;-52
2022/03/12 10:58:06;;;;;;;5.10;4.28;;;9.30;61.00;;;;;;5048379;28;20392;-53
2022/03/12 11:00:57;;;;;;;5.38;4.70;;;9.60;61.60;;;;;;5049774;28;20402;-50
2022/03/12 11:03:24;;;;;;;6.13;4.60;;;9.90;61.50;;;;;;5065505;28;20412;-52
2022/03/12 11:05:51;;;;;;;5.78;4.70;;;10.20;60.40;;;;;;5048508;28;20470;-49
2022/03/12 11:08:22;;;;;;;5.22;4.65;;;10.30;59.30;;;;;;5051185;28;20403;-53
2022/03/12 11:10:49;;;;;;;6.47;5.00;;;10.20;58.20;;;;;;5050607;28;20394;-53
2022/03/12 11:16:17;;;;;;;5.80;5.20;;;10.30;59.10;;;;;;5067134;28;20493;-52
2022/03/12 11:18:51;;;;;;;5.72;5.10;;;10.40;58.70;;;;;;5048652;28;20476;-51
2022/03/12 11:21:37;;;;;;;8.05;5.28;;;10.60;58.80;;;;;;5046624;28;20388;-52
2022/03/12 11:24:25;;;;;;;7.55;4.60;;;10.70;57.60;;;;;;5046272;28;20695;-53
2022/03/12 11:26:59;;;;;;;5.70;5.00;;;10.90;58.50;;;;;;5053199;28;20402;-53
2022/03/12 11:29:27;;;;;;;6.50;4.93;;;11.10;59.10;;;;;;5052022;28;20666;-52
2022/03/12 11:31:57;;;;;;;7.38;5.10;;;11.10;57.80;;;;;;5051797;28;20457;-51
2022/03/12 11:34:33;;;;;;;5.63;4.30;;;11.00;56.90;;;;;;5052941;28;20420;-52
2022/03/12 11:37:06;;;;;;;5.43;4.68;;;11.10;58.20;;;;;;5053671;28;20412;-51
2022/03/12 11:39:33;;;;;;;5.68;4.85;;;11.30;59.00;;;;;;5054490;28;20813;-50
2022/03/12 11:42:11;;;;;;;6.38;4.47;;;11.50;58.50;;;;;;5054493;28;20391;-52
2022/03/12 11:44:39;;;;;;;7.78;4.95;;;11.70;57.60;;;;;;5054082;28;20830;-54
2022/03/12 11:47:05;;;;;;;5.43;4.70;;;11.80;56.50;;;;;;5053196;28;20388;-60
2022/03/12 11:49:32;;;;;;;5.93;4.60;;;11.80;60.10;;;;;;5054724;28;20471;-59
2022/03/12 11:52:00;;;;;;;5.80;4.63;;;11.80;61.70;;;;;;5072887;28;20472;-60
2022/03/12 11:54:26;;;;;;;7.38;4.53;;;11.70;65.10;;;;;;5071045;28;20404;-60
2022/03/12 11:56:52;;;;;;;6.33;4.90;;;11.60;66.00;;;;;;5053599;28;20533;-54
2022/03/12 11:59:18;;;;;;;5.40;4.90;;;11.90;60.00;;;;;;5053578;28;20451;-57
2022/03/12 12:02:01;;;;;;;5.80;5.18;;;12.00;58.10;;;;;;5054604;28;20708;-52
2022/03/12 12:04:32;;;;;;;7.27;5.27;;;12.20;57.40;;;;;;5054733;28;20410;-55
2022/03/12 12:07:00;;;;;;;6.05;4.70;;;12.50;57.10;;;;;;5070178;28;20814;-55
2022/03/12 12:09:27;;;;;;;6.82;5.28;;;12.70;57.10;;;;;;5069041;28;20372;-52
2022/03/12 12:11:53;;;;;;;6.55;4.60;;;12.80;56.60;;;;;;5051174;28;20383;-53
2022/03/12 12:14:19;;;;;;;7.00;5.30;;;13.20;56.80;;;;;;5052422;28;20657;-52
2022/03/12 12:16:46;;;;;;;6.93;5.53;;;13.20;55.50;;;;;;5052764;28;20395;-53
2022/03/12 12:19:12;;;;;;;7.03;5.20;;;12.60;54.40;;;;;;5053064;28;20395;-56
2022/03/12 12:21:38;;;;;;;7.43;5.57;;;12.80;55.60;;;;;;5070210;28;20388;-54
2022/03/12 12:24:26;;;;;;;6.72;5.15;;;13.10;55.60;;;;;;5052131;28;20406;-52
2022/03/12 12:27:03;;;;;;;5.83;5.20;;;13.20;55.00;;;;;;5051492;28;20367;-54
2022/03/12 12:29:41;;;;;;;7.97;5.68;;;13.20;55.10;;;;;;5052362;28;20382;-53
2022/03/12 12:32:08;;;;;;;7.63;5.30;;;13.20;55.40;;;;;;5053785;28;20434;-51
2022/03/12 12:34:35;;;;;;;6.85;5.18;;;13.40;55.10;;;;;;5049663;28;21097;-52
2022/03/12 12:37:02;;;;;;;6.82;5.18;;;13.50;55.50;;;;;;5050899;28;20548;-54
2022/03/12 12:39:29;;;;;;;8.50;5.50;;;13.60;55.30;;;;;;5070218;28;20384;-49
2022/03/12 12:42:01;;;;;;;6.82;5.07;;;13.80;55.40;;;;;;5053421;28;20376;-52
2022/03/12 12:44:37;;;;;;;7.43;5.63;;;13.70;54.70;;;;;;5052388;28;20406;-55
2022/03/12 12:47:04;;;;;;;8.55;5.15;;;13.90;54.80;;;;;;5053777;28;20404;-55
2022/03/12 12:49:40;;;;;;;7.65;4.97;;;13.90;54.10;;;;;;5053475;28;20383;-53
2022/03/12 12:52:07;;;;;;;5.80;5.07;;;14.30;55.10;;;;;;5068854;28;20475;-53
2022/03/12 12:55:00;;;;;;;6.82;4.97;;;14.50;54.90;;;;;;5071733;28;20484;-51
2022/03/12 12:57:44;;;;;;;6.43;5.40;;;14.70;55.00;;;;;;5053888;28;20675;-52